sensor_id;sensor_type;location;lat;lon;timestamp;P1;durP1;ratioP1;P2;durP2;ratioP2
17504;SDS011;8870;50.950;11.762;2024-03-22T00:01:45;5.82;;;2.50;;
17504;SDS011;8870;50.950;11.762;2024-03-22T00:07:00;3.25;;;2.15;;
17504;SDS011;8870;50.950;11.762;2024-03-22T00:12:30;3.28;;;2.10;;
17504;SDS011;8870;50.950;11.762;2024-03-22T00:17:45;5.72;;;2.47;;
17504;SDS011;8870;50.950;11.762;2024-03-22T00:23:12;3.05;;;2.20;;
17504;SDS011;8870;50.950;11.762;2024-03-22T00:28:29;3.95;;;2.30;;
17504;SDS011;8870;50.950;11.762;2024-03-22T00:33:57;3.65;;;2.60;;
17504;SDS011;8870;50.950;11.762;2024-03-22T00:39:12;2.88;;;2.42;;
17504;SDS011;8870;50.950;11.762;2024-03-22T00:44:42;3.75;;;2.67;;
17504;SDS011;8870;50.950;11.762;2024-03-22T00:49:57;4.65;;;2.50;;
17504;SDS011;8870;50.950;11.762;2024-03-22T00:55:24;3.92;;;2.20;;
17504;SDS011;8870;50.950;11.762;2024-03-22T01:00:41;4.72;;;2.50;;
17504;SDS011;8870;50.950;11.762;2024-03-22T01:06:10;3.15;;;2.33;;
17504;SDS011;8870;50.950;11.762;2024-03-22T01:11:25;3.22;;;2.40;;
17504;SDS011;8870;50.950;11.762;2024-03-22T01:16:55;3.33;;;2.47;;
17504;SDS011;8870;50.950;11.762;2024-03-22T01:22:10;4.78;;;2.60;;
17504;SDS011;8870;50.950;11.762;2024-03-22T01:27:38;5.13;;;2.30;;
17504;SDS011;8870;50.950;11.762;2024-03-22T01:32:54;4.75;;;2.50;;
17504;SDS011;8870;50.950;11.762;2024-03-22T01:38:22;3.65;;;2.47;;
17504;SDS011;8870;50.950;11.762;2024-03-22T01:43:38;5.07;;;2.80;;
17504;SDS011;8870;50.950;11.762;2024-03-22T01:49:08;4.68;;;2.92;;
17504;SDS011;8870;50.950;11.762;2024-03-22T01:54:26;4.30;;;2.50;;
17504;SDS011;8870;50.950;11.762;2024-03-22T01:59:54;3.55;;;2.50;;
17504;SDS011;8870;50.950;11.762;2024-03-22T02:05:19;4.18;;;2.63;;
17504;SDS011;8870;50.950;11.762;2024-03-22T02:10:48;4.00;;;2.60;;
17504;SDS011;8870;50.950;11.762;2024-03-22T02:16:02;3.45;;;2.70;;
17504;SDS011;8870;50.950;11.762;2024-03-22T02:21:33;3.95;;;2.70;;
17504;SDS011;8870;50.950;11.762;2024-03-22T02:26:50;4.85;;;2.72;;
17504;SDS011;8870;50.950;11.762;2024-03-22T02:32:18;6.47;;;2.90;;
17504;SDS011;8870;50.950;11.762;2024-03-22T02:37:33;4.50;;;2.60;;
17504;SDS011;8870;50.950;11.762;2024-03-22T02:43:03;5.97;;;2.65;;
17504;SDS011;8870;50.950;11.762;2024-03-22T02:48:18;3.33;;;2.28;;
17504;SDS011;8870;50.950;11.762;2024-03-22T02:53:45;3.50;;;2.60;;
17504;SDS011;8870;50.950;11.762;2024-03-22T02:59:02;6.18;;;2.60;;
17504;SDS011;8870;50.950;11.762;2024-03-22T03:04:31;4.22;;;2.47;;
17504;SDS011;8870;50.950;11.762;2024-03-22T03:09:45;3.83;;;2.70;;
17504;SDS011;8870;50.950;11.762;2024-03-22T03:15:15;3.60;;;2.70;;
17504;SDS011;8870;50.950;11.762;2024-03-22T03:20:31;4.20;;;2.70;;
17504;SDS011;8870;50.950;11.762;2024-03-22T03:25:58;5.45;;;2.47;;
17504;SDS011;8870;50.950;11.762;2024-03-22T03:31:15;2.80;;;2.33;;
17504;SDS011;8870;50.950;11.762;2024-03-22T03:36:44;5.43;;;2.60;;
17504;SDS011;8870;50.950;11.762;2024-03-22T03:41:58;3.92;;;2.60;;
17504;SDS011;8870;50.950;11.762;2024-03-22T03:47:28;4.13;;;2.65;;
17504;SDS011;8870;50.950;11.762;2024-03-22T03:52:43;3.72;;;2.33;;
17504;SDS011;8870;50.950;11.762;2024-03-22T03:58:11;4.78;;;2.40;;
17504;SDS011;8870;50.950;11.762;2024-03-22T04:03:28;4.15;;;2.55;;
17504;SDS011;8870;50.950;11.762;2024-03-22T04:08:57;3.63;;;2.30;;
17504;SDS011;8870;50.950;11.762;2024-03-22T04:14:11;4.05;;;2.55;;
17504;SDS011;8870;50.950;11.762;2024-03-22T04:19:42;3.50;;;2.55;;
17504;SDS011;8870;50.950;11.762;2024-03-22T04:24:57;2.95;;;2.42;;
17504;SDS011;8870;50.950;11.762;2024-03-22T04:30:26;3.35;;;2.63;;
17504;SDS011;8870;50.950;11.762;2024-03-22T04:35:57;3.60;;;2.22;;
17504;SDS011;8870;50.950;11.762;2024-03-22T04:41:13;5.10;;;2.60;;
17504;SDS011;8870;50.950;11.762;2024-03-22T04:46:41;3.22;;;2.70;;
17504;SDS011;8870;50.950;11.762;2024-03-22T04:51:58;4.13;;;3.00;;
17504;SDS011;8870;50.950;11.762;2024-03-22T04:57:27;6.05;;;3.03;;
17504;SDS011;8870;50.950;11.762;2024-03-22T05:02:42;5.68;;;2.90;;
17504;SDS011;8870;50.950;11.762;2024-03-22T05:08:12;3.42;;;3.00;;
17504;SDS011;8870;50.950;11.762;2024-03-22T05:13:27;3.38;;;2.90;;
17504;SDS011;8870;50.950;11.762;2024-03-22T05:18:55;5.47;;;3.20;;
17504;SDS011;8870;50.950;11.762;2024-03-22T05:24:11;4.77;;;3.27;;
17504;SDS011;8870;50.950;11.762;2024-03-22T05:29:40;5.07;;;3.38;;
17504;SDS011;8870;50.950;11.762;2024-03-22T05:34:55;3.97;;;3.10;;
17504;SDS011;8870;50.950;11.762;2024-03-22T05:40:25;5.60;;;3.20;;
17504;SDS011;8870;50.950;11.762;2024-03-22T05:45:40;3.30;;;2.65;;
17504;SDS011;8870;50.950;11.762;2024-03-22T05:51:08;6.07;;;3.03;;
17504;SDS011;8870;50.950;11.762;2024-03-22T05:56:24;5.30;;;3.13;;
17504;SDS011;8870;50.950;11.762;2024-03-22T06:01:53;5.90;;;3.08;;
17504;SDS011;8870;50.950;11.762;2024-03-22T06:07:07;3.55;;;3.08;;
17504;SDS011;8870;50.950;11.762;2024-03-22T06:12:37;4.78;;;3.10;;
17504;SDS011;8870;50.950;11.762;2024-03-22T06:17:52;4.30;;;3.20;;
17504;SDS011;8870;50.950;11.762;2024-03-22T06:23:20;5.82;;;3.42;;
17504;SDS011;8870;50.950;11.762;2024-03-22T06:28:43;7.10;;;3.55;;
17504;SDS011;8870;50.950;11.762;2024-03-22T06:34:12;5.03;;;3.43;;
17504;SDS011;8870;50.950;11.762;2024-03-22T06:39:27;5.90;;;3.50;;
17504;SDS011;8870;50.950;11.762;2024-03-22T06:44:57;7.05;;;3.03;;
17504;SDS011;8870;50.950;11.762;2024-03-22T06:50:12;4.78;;;3.53;;
17504;SDS011;8870;50.950;11.762;2024-03-22T06:55:42;6.10;;;3.33;;
17504;SDS011;8870;50.950;11.762;2024-03-22T07:00:58;4.15;;;3.60;;
17504;SDS011;8870;50.950;11.762;2024-03-22T07:06:27;5.90;;;3.47;;
17504;SDS011;8870;50.950;11.762;2024-03-22T07:11:42;4.60;;;3.47;;
17504;SDS011;8870;50.950;11.762;2024-03-22T07:17:13;7.15;;;3.63;;
17504;SDS011;8870;50.950;11.762;2024-03-22T07:22:30;5.22;;;3.80;;
17504;SDS011;8870;50.950;11.762;2024-03-22T07:27:59;6.05;;;4.30;;
17504;SDS011;8870;50.950;11.762;2024-03-22T07:33:16;5.80;;;3.80;;
17504;SDS011;8870;50.950;11.762;2024-03-22T07:38:45;5.57;;;3.88;;
17504;SDS011;8870;50.950;11.762;2024-03-22T07:44:00;5.25;;;3.90;;
17504;SDS011;8870;50.950;11.762;2024-03-22T07:49:30;6.20;;;4.13;;
17504;SDS011;8870;50.950;11.762;2024-03-22T07:54:46;7.07;;;4.20;;
17504;SDS011;8870;50.950;11.762;2024-03-22T08:00:15;5.78;;;4.15;;
17504;SDS011;8870;50.950;11.762;2024-03-22T08:05:33;5.93;;;4.10;;
17504;SDS011;8870;50.950;11.762;2024-03-22T08:11:01;5.95;;;4.50;;
17504;SDS011;8870;50.950;11.762;2024-03-22T08:16:16;6.10;;;4.40;;
17504;SDS011;8870;50.950;11.762;2024-03-22T08:21:46;6.95;;;4.95;;
17504;SDS011;8870;50.950;11.762;2024-03-22T08:27:01;7.97;;;5.25;;
17504;SDS011;8870;50.950;11.762;2024-03-22T08:32:29;7.90;;;5.20;;
17504;SDS011;8870;50.950;11.762;2024-03-22T08:37:45;8.47;;;5.60;;
17504;SDS011;8870;50.950;11.762;2024-03-22T08:43:14;8.40;;;5.88;;
17504;SDS011;8870;50.950;11.762;2024-03-22T08:48:29;9.60;;;5.78;;
17504;SDS011;8870;50.950;11.762;2024-03-22T08:53:59;9.13;;;6.17;;
17504;SDS011;8870;50.950;11.762;2024-03-22T08:59:15;8.82;;;6.28;;
17504;SDS011;8870;50.950;11.762;2024-03-22T09:04:43;8.65;;;6.07;;
17504;SDS011;8870;50.950;11.762;2024-03-22T09:09:59;8.35;;;6.65;;
17504;SDS011;8870;50.950;11.762;2024-03-22T09:15:28;9.60;;;6.10;;
17504;SDS011;8870;50.950;11.762;2024-03-22T09:20:43;9.30;;;6.68;;
17504;SDS011;8870;50.950;11.762;2024-03-22T09:26:13;10.55;;;6.22;;
17504;SDS011;8870;50.950;11.762;2024-03-22T09:31:35;8.23;;;6.40;;
17504;SDS011;8870;50.950;11.762;2024-03-22T09:37:03;10.25;;;6.40;;
17504;SDS011;8870;50.950;11.762;2024-03-22T09:42:21;7.22;;;5.72;;
17504;SDS011;8870;50.950;11.762;2024-03-22T09:47:51;7.13;;;6.10;;
17504;SDS011;8870;50.950;11.762;2024-03-22T09:53:14;11.88;;;6.07;;
17504;SDS011;8870;50.950;11.762;2024-03-22T09:58:48;9.15;;;5.72;;
17504;SDS011;8870;50.950;11.762;2024-03-22T10:04:04;7.18;;;6.15;;
17504;SDS011;8870;50.950;11.762;2024-03-22T10:09:33;8.55;;;6.10;;
17504;SDS011;8870;50.950;11.762;2024-03-22T10:14:50;8.40;;;6.00;;
17504;SDS011;8870;50.950;11.762;2024-03-22T10:20:20;7.32;;;5.90;;
17504;SDS011;8870;50.950;11.762;2024-03-22T10:25:34;7.68;;;6.30;;
17504;SDS011;8870;50.950;11.762;2024-03-22T10:31:05;7.82;;;6.00;;
17504;SDS011;8870;50.950;11.762;2024-03-22T10:36:21;7.35;;;5.88;;
17504;SDS011;8870;50.950;11.762;2024-03-22T10:41:50;7.68;;;5.97;;
17504;SDS011;8870;50.950;11.762;2024-03-22T10:47:09;9.05;;;6.50;;
17504;SDS011;8870;50.950;11.762;2024-03-22T10:52:40;9.50;;;6.07;;
17504;SDS011;8870;50.950;11.762;2024-03-22T10:58:21;9.52;;;5.72;;
17504;SDS011;8870;50.950;11.762;2024-03-22T11:03:39;6.75;;;5.80;;
17504;SDS011;8870;50.950;11.762;2024-03-22T11:09:07;7.88;;;5.82;;
17504;SDS011;8870;50.950;11.762;2024-03-22T11:14:22;7.47;;;5.22;;
17504;SDS011;8870;50.950;11.762;2024-03-22T11:19:52;6.68;;;5.40;;
17504;SDS011;8870;50.950;11.762;2024-03-22T11:25:07;7.05;;;5.70;;
17504;SDS011;8870;50.950;11.762;2024-03-22T11:30:36;5.97;;;5.38;;
17504;SDS011;8870;50.950;11.762;2024-03-22T11:35:53;5.80;;;5.18;;
17504;SDS011;8870;50.950;11.762;2024-03-22T11:41:23;7.03;;;5.30;;
17504;SDS011;8870;50.950;11.762;2024-03-22T11:46:40;6.85;;;5.03;;
17504;SDS011;8870;50.950;11.762;2024-03-22T11:52:10;7.45;;;5.05;;
17504;SDS011;8870;50.950;11.762;2024-03-22T11:57:25;7.07;;;5.00;;
17504;SDS011;8870;50.950;11.762;2024-03-22T12:02:53;7.03;;;4.85;;
17504;SDS011;8870;50.950;11.762;2024-03-22T12:08:11;7.40;;;5.10;;
17504;SDS011;8870;50.950;11.762;2024-03-22T12:13:39;6.75;;;5.40;;
17504;SDS011;8870;50.950;11.762;2024-03-22T12:19:01;6.72;;;5.40;;
17504;SDS011;8870;50.950;11.762;2024-03-22T12:24:31;5.38;;;4.78;;
17504;SDS011;8870;50.950;11.762;2024-03-22T12:29:46;7.90;;;5.28;;
17504;SDS011;8870;50.950;11.762;2024-03-22T12:35:14;6.45;;;4.82;;
17504;SDS011;8870;50.950;11.762;2024-03-22T12:40:32;6.72;;;4.85;;
17504;SDS011;8870;50.950;11.762;2024-03-22T12:46:00;7.65;;;5.38;;
17504;SDS011;8870;50.950;11.762;2024-03-22T12:51:15;7.80;;;4.53;;
17504;SDS011;8870;50.950;11.762;2024-03-22T12:56:47;5.30;;;4.43;;
17504;SDS011;8870;50.950;11.762;2024-03-22T13:02:02;5.50;;;4.20;;
17504;SDS011;8870;50.950;11.762;2024-03-22T13:07:31;6.50;;;4.55;;
17504;SDS011;8870;50.950;11.762;2024-03-22T13:12:55;5.97;;;4.32;;
17504;SDS011;8870;50.950;11.762;2024-03-22T13:18:23;7.68;;;4.50;;
17504;SDS011;8870;50.950;11.762;2024-03-22T13:23:38;5.95;;;4.40;;
17504;SDS011;8870;50.950;11.762;2024-03-22T13:29:08;5.05;;;3.88;;
17504;SDS011;8870;50.950;11.762;2024-03-22T13:34:23;5.78;;;3.58;;
17504;SDS011;8870;50.950;11.762;2024-03-22T13:39:51;7.32;;;3.60;;
17504;SDS011;8870;50.950;11.762;2024-03-22T13:45:08;4.65;;;3.35;;
17504;SDS011;8870;50.950;11.762;2024-03-22T13:50:37;4.80;;;3.38;;
17504;SDS011;8870;50.950;11.762;2024-03-22T13:55:51;6.97;;;3.58;;
17504;SDS011;8870;50.950;11.762;2024-03-22T14:01:21;6.15;;;3.80;;
17504;SDS011;8870;50.950;11.762;2024-03-22T14:06:36;6.57;;;3.53;;
17504;SDS011;8870;50.950;11.762;2024-03-22T14:12:05;4.38;;;3.30;;
17504;SDS011;8870;50.950;11.762;2024-03-22T14:17:23;4.85;;;3.58;;
17504;SDS011;8870;50.950;11.762;2024-03-22T14:22:51;5.97;;;3.30;;
17504;SDS011;8870;50.950;11.762;2024-03-22T14:28:06;7.78;;;3.97;;
17504;SDS011;8870;50.950;11.762;2024-03-22T14:33:37;6.05;;;3.80;;
17504;SDS011;8870;50.950;11.762;2024-03-22T14:38:52;5.25;;;3.60;;
17504;SDS011;8870;50.950;11.762;2024-03-22T14:44:20;4.78;;;3.63;;
17504;SDS011;8870;50.950;11.762;2024-03-22T14:49:38;4.00;;;3.30;;
17504;SDS011;8870;50.950;11.762;2024-03-22T14:55:06;4.90;;;3.40;;
17504;SDS011;8870;50.950;11.762;2024-03-22T15:00:21;4.53;;;3.92;;
17504;SDS011;8870;50.950;11.762;2024-03-22T15:05:45;6.18;;;3.65;;
17504;SDS011;8870;50.950;11.762;2024-03-22T15:11:06;4.28;;;3.58;;
17504;SDS011;8870;50.950;11.762;2024-03-22T15:16:20;5.13;;;4.18;;
17504;SDS011;8870;50.950;11.762;2024-03-22T15:21:51;6.07;;;4.05;;
17504;SDS011;8870;50.950;11.762;2024-03-22T15:27:05;5.22;;;3.70;;
17504;SDS011;8870;50.950;11.762;2024-03-22T15:37:50;5.70;;;3.30;;
17504;SDS011;8870;50.950;11.762;2024-03-22T15:43:18;4.00;;;3.28;;
17504;SDS011;8870;50.950;11.762;2024-03-22T15:48:32;6.40;;;3.50;;
17504;SDS011;8870;50.950;11.762;2024-03-22T15:54:03;4.20;;;3.38;;
17504;SDS011;8870;50.950;11.762;2024-03-22T15:59:31;4.13;;;3.30;;
17504;SDS011;8870;50.950;11.762;2024-03-22T16:04:45;6.32;;;3.38;;
17504;SDS011;8870;50.950;11.762;2024-03-22T16:10:17;4.30;;;3.30;;
17504;SDS011;8870;50.950;11.762;2024-03-22T16:15:31;4.45;;;3.15;;
17504;SDS011;8870;50.950;11.762;2024-03-22T16:20:59;4.93;;;3.47;;
17504;SDS011;8870;50.950;11.762;2024-03-22T16:26:17;4.13;;;3.17;;
17504;SDS011;8870;50.950;11.762;2024-03-22T16:31:45;3.92;;;3.10;;
17504;SDS011;8870;50.950;11.762;2024-03-22T16:37:00;4.75;;;3.72;;
17504;SDS011;8870;50.950;11.762;2024-03-22T16:42:31;7.15;;;3.50;;
17504;SDS011;8870;50.950;11.762;2024-03-22T16:47:56;6.05;;;3.30;;
17504;SDS011;8870;50.950;11.762;2024-03-22T16:53:24;3.72;;;3.25;;
17504;SDS011;8870;50.950;11.762;2024-03-22T16:58:56;6.22;;;3.53;;
17504;SDS011;8870;50.950;11.762;2024-03-22T17:04:10;4.93;;;3.15;;
17504;SDS011;8870;50.950;11.762;2024-03-22T17:09:38;4.40;;;3.40;;
17504;SDS011;8870;50.950;11.762;2024-03-22T17:14:55;6.35;;;3.80;;
17504;SDS011;8870;50.950;11.762;2024-03-22T17:20:23;4.70;;;3.40;;
17504;SDS011;8870;50.950;11.762;2024-03-22T17:25:37;3.75;;;2.70;;
17504;SDS011;8870;50.950;11.762;2024-03-22T17:31:08;4.35;;;2.90;;
17504;SDS011;8870;50.950;11.762;2024-03-22T17:36:23;3.33;;;3.00;;
17504;SDS011;8870;50.950;11.762;2024-03-22T17:41:51;4.75;;;3.45;;
17504;SDS011;8870;50.950;11.762;2024-03-22T17:47:08;4.55;;;2.92;;
17504;SDS011;8870;50.950;11.762;2024-03-22T17:52:36;3.35;;;2.25;;
17504;SDS011;8870;50.950;11.762;2024-03-22T17:57:50;3.20;;;2.40;;
17504;SDS011;8870;50.950;11.762;2024-03-22T18:03:21;3.95;;;2.50;;
17504;SDS011;8870;50.950;11.762;2024-03-22T18:08:35;4.50;;;3.00;;
17504;SDS011;8870;50.950;11.762;2024-03-22T18:14:04;3.58;;;2.63;;
17504;SDS011;8870;50.950;11.762;2024-03-22T18:19:22;5.88;;;3.00;;
17504;SDS011;8870;50.950;11.762;2024-03-22T18:24:50;5.20;;;2.60;;
17504;SDS011;8870;50.950;11.762;2024-03-22T18:30:06;2.83;;;2.10;;
17504;SDS011;8870;50.950;11.762;2024-03-22T18:35:37;3.50;;;2.40;;
17504;SDS011;8870;50.950;11.762;2024-03-22T18:40:51;2.90;;;2.30;;
17504;SDS011;8870;50.950;11.762;2024-03-22T18:46:20;3.60;;;2.30;;
17504;SDS011;8870;50.950;11.762;2024-03-22T18:51:37;4.88;;;2.40;;
17504;SDS011;8870;50.950;11.762;2024-03-22T18:57:05;3.65;;;2.53;;
17504;SDS011;8870;50.950;11.762;2024-03-22T19:02:20;4.30;;;2.17;;
17504;SDS011;8870;50.950;11.762;2024-03-22T19:07:51;2.22;;;1.98;;
17504;SDS011;8870;50.950;11.762;2024-03-22T19:13:05;3.08;;;2.03;;
17504;SDS011;8870;50.950;11.762;2024-03-22T19:18:33;2.00;;;1.50;;
17504;SDS011;8870;50.950;11.762;2024-03-22T19:23:51;2.67;;;1.90;;
17504;SDS011;8870;50.950;11.762;2024-03-22T19:29:21;2.10;;;1.73;;
17504;SDS011;8870;50.950;11.762;2024-03-22T19:34:35;4.03;;;1.90;;
17504;SDS011;8870;50.950;11.762;2024-03-22T19:40:06;2.75;;;1.90;;
17504;SDS011;8870;50.950;11.762;2024-03-22T19:45:22;2.42;;;2.00;;
17504;SDS011;8870;50.950;11.762;2024-03-22T19:50:50;3.40;;;2.00;;
17504;SDS011;8870;50.950;11.762;2024-03-22T19:56:07;2.65;;;1.60;;
17504;SDS011;8870;50.950;11.762;2024-03-22T20:01:35;2.33;;;1.60;;
17504;SDS011;8870;50.950;11.762;2024-03-22T20:06:49;4.32;;;1.60;;
17504;SDS011;8870;50.950;11.762;2024-03-22T20:12:20;2.88;;;1.38;;
17504;SDS011;8870;50.950;11.762;2024-03-22T20:17:34;2.53;;;1.73;;
17504;SDS011;8870;50.950;11.762;2024-03-22T20:23:02;4.20;;;1.70;;
17504;SDS011;8870;50.950;11.762;2024-03-22T20:28:21;2.97;;;1.58;;
17504;SDS011;8870;50.950;11.762;2024-03-22T20:33:49;3.85;;;1.67;;
